createdAt,value
2023-04-13T00:00:35.188Z,9.20
2023-04-13T00:03:12.193Z,9.14
2023-04-13T00:05:42.449Z,9.02
2023-04-13T00:08:10.842Z,9.06
2023-04-13T00:10:41.940Z,9.05
2023-04-13T00:13:11.917Z,9.01
2023-04-13T00:15:44.210Z,8.91
2023-04-13T00:18:12.918Z,8.80
2023-04-13T00:20:43.452Z,9.09
2023-04-13T00:23:12.383Z,9.09
2023-04-13T00:25:42.081Z,9.13
2023-04-13T00:28:10.528Z,9.15
2023-04-13T00:30:39.163Z,9.21
2023-04-13T00:33:07.562Z,9.25
2023-04-13T00:35:35.882Z,9.28
2023-04-13T00:38:04.503Z,9.37
2023-04-13T00:40:33.265Z,9.28
2023-04-13T00:43:03.036Z,9.31
2023-04-13T00:45:31.495Z,9.10
2023-04-13T00:48:00.396Z,9.24
2023-04-13T00:50:29.478Z,9.31
2023-04-13T00:52:58.256Z,9.35
2023-04-13T00:55:27.751Z,9.42
2023-04-13T00:57:57.954Z,9.39
2023-04-13T01:00:27.881Z,9.43
2023-04-13T01:02:57.299Z,9.58
2023-04-13T01:05:29.556Z,9.63
2023-04-13T01:08:09.798Z,9.63
2023-04-13T01:10:44.767Z,9.67
2023-04-13T01:13:22.673Z,9.74
2023-04-13T01:16:03.767Z,9.80
2023-04-13T01:18:39.672Z,9.70
2023-04-13T01:21:14.276Z,9.73
2023-04-13T01:23:57.826Z,9.87
2023-04-13T01:26:38.762Z,9.89
2023-04-13T01:29:08.666Z,9.93
2023-04-13T01:31:37.839Z,9.91
2023-04-13T01:34:06.250Z,9.93
2023-04-13T01:36:35.197Z,9.98
2023-04-13T01:39:04.334Z,9.94
2023-04-13T01:41:33.638Z,9.88
2023-04-13T01:44:02.505Z,9.88
2023-04-13T01:46:37.589Z,9.87
2023-04-13T01:49:19.691Z,9.90
2023-04-13T01:52:12.126Z,9.87
2023-04-13T01:54:45.729Z,9.90
2023-04-13T01:57:15.928Z,9.96
2023-04-13T01:59:45.254Z,10.01
2023-04-13T02:02:19.609Z,10.11
2023-04-13T02:04:48.578Z,10.10
2023-04-13T02:07:17.536Z,10.03
2023-04-13T02:09:50.321Z,10.09
2023-04-13T02:12:19.139Z,10.06
2023-04-13T02:14:47.388Z,10.14
2023-04-13T02:17:15.741Z,10.13
2023-04-13T02:19:46.201Z,10.21
2023-04-13T02:22:16.306Z,10.17
2023-04-13T02:24:44.618Z,10.13
2023-04-13T02:27:13.176Z,10.08
2023-04-13T02:29:41.663Z,9.96
2023-04-13T02:32:10.066Z,10.00
2023-04-13T02:34:38.886Z,10.01
2023-04-13T02:37:09.519Z,10.14
2023-04-13T02:39:38.448Z,10.23
2023-04-13T02:42:08.444Z,10.20
2023-04-13T02:44:38.647Z,10.18
2023-04-13T02:47:07.622Z,10.15
2023-04-13T02:49:37.557Z,10.06
2023-04-13T02:52:21.571Z,10.04
2023-04-13T02:55:05.067Z,9.95
2023-04-13T02:57:45.410Z,10.09
2023-04-13T03:00:16.965Z,10.00
2023-04-13T03:02:55.747Z,10.04
2023-04-13T03:05:28.978Z,10.07
2023-04-13T03:07:59.344Z,9.97
2023-04-13T03:10:31.104Z,10.06
2023-04-13T03:13:01.266Z,9.99
2023-04-13T03:15:30.703Z,10.05
2023-04-13T03:18:00.587Z,10.09
2023-04-13T03:20:31.265Z,9.99
2023-04-13T03:23:05.809Z,9.94
2023-04-13T03:25:36.926Z,9.94
2023-04-13T03:28:06.455Z,9.79
2023-04-13T03:30:41.026Z,9.88
2023-04-13T03:33:09.358Z,9.90
2023-04-13T03:35:39.884Z,9.92
2023-04-13T03:38:16.715Z,9.18
2023-04-13T03:40:47.862Z,9.96
2023-04-13T03:43:16.724Z,9.72
2023-04-13T03:45:50.958Z,9.94
2023-04-13T03:48:20.847Z,9.77
2023-04-13T03:50:49.118Z,9.99
2023-04-13T03:53:22.827Z,9.34
2023-04-13T03:55:54.339Z,10.07
2023-04-13T03:58:23.839Z,9.99
2023-04-13T04:00:52.992Z,10.06
2023-04-13T04:03:35.863Z,9.55
2023-04-13T04:06:10.034Z,9.94
2023-04-13T04:08:43.940Z,10.02
2023-04-13T04:11:23.894Z,10.09
2023-04-13T04:13:52.997Z,9.95
2023-04-13T04:16:21.351Z,10.06
2023-04-13T04:18:55.226Z,10.05
2023-04-13T04:21:23.600Z,9.99
2023-04-13T04:23:53.311Z,9.96
2023-04-13T04:26:25.718Z,9.74
2023-04-13T04:29:03.057Z,9.55
2023-04-13T04:31:37.106Z,9.64
2023-04-13T04:34:10.560Z,9.63
2023-04-13T04:36:42.042Z,9.77
2023-04-13T04:39:14.377Z,9.62
2023-04-13T04:41:54.230Z,9.64
2023-04-13T04:44:25.320Z,9.65
2023-04-13T04:46:55.282Z,9.84
2023-04-13T04:49:23.854Z,9.63
2023-04-13T04:51:53.032Z,9.58
2023-04-13T04:54:23.465Z,9.69
2023-04-13T04:56:52.768Z,9.10
2023-04-13T04:59:22.157Z,9.68
2023-04-13T05:01:58.506Z,9.58
2023-04-13T05:04:26.957Z,9.35
2023-04-13T05:06:55.377Z,9.34
2023-04-13T05:09:28.128Z,9.56
2023-04-13T05:11:58.161Z,9.57
2023-04-13T05:14:26.660Z,9.49
2023-04-13T05:16:55.654Z,9.44
2023-04-13T05:19:27.905Z,9.65
2023-04-13T05:22:25.605Z,9.70
2023-04-13T05:25:01.832Z,9.71
2023-04-13T05:27:31.639Z,9.79
2023-04-13T05:30:00.071Z,9.85
2023-04-13T05:32:28.674Z,9.89
2023-04-13T05:35:00.455Z,10.03
2023-04-13T05:37:29.028Z,9.96
2023-04-13T05:39:57.719Z,9.95
2023-04-13T05:42:34.004Z,9.81
2023-04-13T05:45:04.047Z,9.93
2023-04-13T05:47:32.624Z,9.88
2023-04-13T05:50:10.583Z,10.09
2023-04-13T05:52:38.888Z,9.96
2023-04-13T05:55:07.952Z,9.96
2023-04-13T05:57:38.307Z,10.03
2023-04-13T06:00:14.075Z,9.96
2023-04-13T06:02:49.230Z,9.95
2023-04-13T06:05:18.356Z,9.95
2023-04-13T06:07:47.837Z,9.92
2023-04-13T06:10:16.764Z,9.78
2023-04-13T06:12:48.896Z,9.57
2023-04-13T06:15:18.377Z,9.76
2023-04-13T06:17:46.797Z,9.87
2023-04-13T06:20:15.667Z,9.94
2023-04-13T06:22:44.018Z,9.94
2023-04-13T06:25:13.762Z,10.00
2023-04-13T06:27:44.456Z,10.10
2023-04-13T06:30:14.891Z,10.12
2023-04-13T06:32:44.314Z,10.11
2023-04-13T06:35:13.382Z,10.21
2023-04-13T06:37:46.523Z,10.13
2023-04-13T06:40:21.095Z,9.92
2023-04-13T06:43:08.933Z,10.08
2023-04-13T06:46:06.963Z,10.13
2023-04-13T06:48:45.098Z,10.13
2023-04-13T06:51:18.932Z,10.18
2023-04-13T06:53:48.614Z,10.22
2023-04-13T06:56:17.131Z,10.32
2023-04-13T06:58:46.553Z,10.35
2023-04-13T07:01:16.406Z,10.34
2023-04-13T07:03:46.616Z,10.32
2023-04-13T07:06:16.724Z,10.44
2023-04-13T07:08:45.167Z,10.54
2023-04-13T07:11:14.427Z,10.35
2023-04-13T07:13:43.630Z,10.40
2023-04-13T07:16:16.184Z,10.41
2023-04-13T07:18:47.514Z,10.43
2023-04-13T07:21:16.104Z,10.42
2023-04-13T07:24:16.921Z,10.40
2023-04-13T07:26:46.905Z,10.56
2023-04-13T07:29:17.245Z,10.52
2023-04-13T07:31:52.754Z,10.48
2023-04-13T07:34:21.932Z,10.57
2023-04-13T07:36:51.436Z,10.54
2023-04-13T07:39:22.465Z,10.55
2023-04-13T07:41:53.286Z,10.51
2023-04-13T07:44:36.502Z,10.56
2023-04-13T07:47:06.976Z,10.63
2023-04-13T07:49:38.588Z,10.60
2023-04-13T07:52:11.290Z,10.58
2023-04-13T07:54:41.392Z,10.57
2023-04-13T07:57:12.016Z,10.68
2023-04-13T07:59:46.029Z,10.59
2023-04-13T08:02:18.368Z,10.66
2023-04-13T08:04:50.306Z,10.72
2023-04-13T08:07:23.772Z,10.86
2023-04-13T08:09:52.776Z,10.91
2023-04-13T08:12:22.979Z,11.06
2023-04-13T08:14:53.133Z,11.12
2023-04-13T08:17:23.088Z,11.02
2023-04-13T08:19:52.510Z,11.04
2023-04-13T08:22:21.279Z,11.05
2023-04-13T08:24:49.704Z,11.08
2023-04-13T08:27:19.385Z,11.06
2023-04-13T08:29:47.708Z,11.13
2023-04-13T08:32:16.869Z,11.10
2023-04-13T08:34:46.886Z,11.26
2023-04-13T08:37:17.928Z,11.42
2023-04-13T08:39:48.315Z,11.63
2023-04-13T08:42:21.631Z,11.63
2023-04-13T08:44:52.779Z,11.62
2023-04-13T08:47:21.201Z,11.62
2023-04-13T08:49:52.155Z,11.66
2023-04-13T08:52:32.666Z,11.67
2023-04-13T08:55:02.387Z,11.54
2023-04-13T08:57:34.769Z,11.62
2023-04-13T09:00:10.286Z,11.91
2023-04-13T09:02:56.024Z,12.11
2023-04-13T09:05:34.110Z,12.15
2023-04-13T09:08:08.037Z,12.08
2023-04-13T09:10:38.740Z,12.25
2023-04-13T09:13:09.487Z,12.32
2023-04-13T09:15:38.882Z,12.39
2023-04-13T09:18:20.557Z,12.37
2023-04-13T09:21:00.918Z,12.27
2023-04-13T09:23:29.306Z,12.15
2023-04-13T09:26:08.184Z,11.89
2023-04-13T09:28:48.143Z,11.70
2023-04-13T09:31:16.938Z,12.03
2023-04-13T09:33:46.777Z,11.95
2023-04-13T09:36:18.568Z,11.60
2023-04-13T09:38:52.165Z,11.64
2023-04-13T09:41:34.293Z,11.63
2023-04-13T09:44:04.028Z,11.78
2023-04-13T09:46:32.643Z,11.60
2023-04-13T09:49:03.556Z,11.89
2023-04-13T09:51:42.194Z,12.06
2023-04-13T09:54:12.574Z,12.05
2023-04-13T09:56:47.011Z,12.08
2023-04-13T09:59:15.810Z,12.12
2023-04-13T10:01:45.247Z,12.14
2023-04-13T10:04:13.898Z,12.21
2023-04-13T10:06:44.915Z,12.21
2023-04-13T10:09:13.549Z,12.13
2023-04-13T10:11:46.727Z,12.22
2023-04-13T10:14:19.255Z,12.08
2023-04-13T10:17:20.183Z,12.21
2023-04-13T10:19:50.859Z,12.20
2023-04-13T10:22:22.812Z,12.32
2023-04-13T10:24:53.409Z,12.23
2023-04-13T10:27:23.789Z,12.24
2023-04-13T10:29:52.261Z,12.33
2023-04-13T10:32:27.437Z,12.17
2023-04-13T10:34:56.873Z,12.34
2023-04-13T10:37:30.000Z,12.45
2023-04-13T10:40:07.926Z,12.68
2023-04-13T10:45:21.327Z,12.67
2023-04-13T10:47:49.985Z,12.76
2023-04-13T10:50:21.061Z,12.87
2023-04-13T10:53:03.210Z,12.45
2023-04-13T10:55:31.958Z,12.40
2023-04-13T10:58:02.111Z,12.13
2023-04-13T11:00:45.524Z,12.27
2023-04-13T11:03:17.846Z,12.43
2023-04-13T11:05:47.419Z,12.45
2023-04-13T11:08:21.817Z,12.65
2023-04-13T11:10:53.950Z,12.22
2023-04-13T11:13:25.089Z,12.72
2023-04-13T11:16:02.397Z,12.74
2023-04-13T11:18:30.859Z,12.97
2023-04-13T11:20:59.438Z,13.05
2023-04-13T11:23:34.434Z,13.06
2023-04-13T11:26:04.637Z,13.29
2023-04-13T11:28:40.263Z,13.46
2023-04-13T11:31:08.875Z,13.33
2023-04-13T11:33:39.929Z,13.38
2023-04-13T11:36:11.885Z,13.45
2023-04-13T11:38:42.742Z,13.30
2023-04-13T11:43:42.984Z,13.24
2023-04-13T11:46:13.714Z,13.50
2023-04-13T11:48:43.189Z,13.54
2023-04-13T11:51:12.144Z,13.54
2023-04-13T11:53:42.351Z,13.46
2023-04-13T11:56:11.548Z,13.28
2023-04-13T11:58:40.479Z,13.06
2023-04-13T12:01:14.318Z,13.12
2023-04-13T12:06:17.560Z,13.19
2023-04-13T12:08:52.615Z,13.31
2023-04-13T12:11:41.186Z,12.96
2023-04-13T12:19:27.482Z,13.04
2023-04-13T12:21:57.569Z,12.88
2023-04-13T12:24:37.800Z,12.86
2023-04-13T12:29:42.192Z,13.17
2023-04-13T12:32:15.428Z,13.12
2023-04-13T12:34:44.804Z,13.06
2023-04-13T12:37:14.830Z,13.15
2023-04-13T12:39:44.968Z,13.15
2023-04-13T12:42:13.508Z,13.21
2023-04-13T12:44:41.822Z,13.31
2023-04-13T12:47:10.258Z,13.46
2023-04-13T12:49:38.595Z,13.47
2023-04-13T12:52:07.076Z,13.36
2023-04-13T12:54:35.387Z,13.20
2023-04-13T12:57:05.231Z,13.47
2023-04-13T12:59:33.544Z,13.40
2023-04-13T13:02:02.173Z,13.35
2023-04-13T13:04:30.793Z,13.38
2023-04-13T13:07:00.507Z,13.32
2023-04-13T13:09:29.199Z,13.19
2023-04-13T13:11:58.032Z,13.38
2023-04-13T13:14:28.340Z,13.49
2023-04-13T13:16:56.838Z,13.74
2023-04-13T13:19:25.226Z,13.85
2023-04-13T13:21:53.529Z,13.63
2023-04-13T13:24:21.842Z,13.62
2023-04-13T13:27:17.016Z,13.69
2023-04-13T13:29:40.655Z,13.74
2023-04-13T13:32:10.409Z,13.93
2023-04-13T13:34:38.778Z,13.87
2023-04-13T13:37:07.323Z,13.92
2023-04-13T13:39:35.785Z,13.92
2023-04-13T13:42:04.545Z,13.94
2023-04-13T13:44:34.345Z,14.04
2023-04-13T13:47:05.001Z,14.01
2023-04-13T13:49:33.743Z,14.15
2023-04-13T13:52:20.282Z,14.27
2023-04-13T13:54:54.543Z,14.40
2023-04-13T13:57:22.877Z,14.42
2023-04-13T13:59:51.346Z,14.44
2023-04-13T14:02:21.515Z,13.72
2023-04-13T14:04:49.841Z,14.58
2023-04-13T14:07:18.127Z,14.58
2023-04-13T14:09:46.978Z,14.67
2023-04-13T14:12:15.424Z,14.67
2023-04-13T14:14:43.746Z,14.61
2023-04-13T14:17:12.150Z,14.68
2023-04-13T14:19:41.874Z,14.50
2023-04-13T14:22:10.216Z,14.51
2023-04-13T14:24:46.684Z,14.39
2023-04-13T14:27:15.321Z,14.38
2023-04-13T14:29:43.656Z,14.36
2023-04-13T14:32:12.038Z,14.25
2023-04-13T14:34:40.388Z,14.19
2023-04-13T14:37:10.038Z,14.10
2023-04-13T14:39:38.407Z,14.03
2023-04-13T14:42:08.782Z,14.05
2023-04-13T14:44:37.219Z,14.12
2023-04-13T14:47:08.754Z,13.97
2023-04-13T14:49:38.059Z,13.95
2023-04-13T14:52:07.252Z,13.95
2023-04-13T14:54:36.480Z,13.84
2023-04-13T14:57:05.053Z,13.81
2023-04-13T14:59:34.779Z,13.80
2023-04-13T15:02:03.288Z,13.82
2023-04-13T15:04:32.358Z,13.77
2023-04-13T15:07:01.446Z,13.77
2023-04-13T15:09:30.072Z,13.77
2023-04-13T15:11:58.411Z,13.90
2023-04-13T15:14:26.889Z,14.02
2023-04-13T15:16:56.625Z,13.99
2023-04-13T15:19:25.199Z,13.96
2023-04-13T15:21:53.560Z,14.00
2023-04-13T15:24:21.918Z,13.94
2023-04-13T15:26:50.501Z,13.98
2023-04-13T15:29:18.864Z,13.87
2023-04-13T15:31:47.185Z,13.97
2023-04-13T15:34:16.982Z,13.79
2023-04-13T15:36:45.350Z,13.85
2023-04-13T15:39:13.824Z,13.87
2023-04-13T15:41:42.152Z,13.96
2023-04-13T15:44:10.762Z,14.02
2023-04-13T15:46:40.135Z,14.00
2023-04-13T15:49:08.446Z,13.48
2023-04-13T15:51:38.632Z,13.87
2023-04-13T15:54:07.193Z,13.80
2023-04-13T15:56:35.546Z,13.93
2023-04-13T15:59:04.076Z,13.89
2023-04-13T16:01:45.850Z,13.77
2023-04-13T16:04:14.512Z,13.78
2023-04-13T16:06:44.471Z,13.85
2023-04-13T16:09:12.834Z,13.75
2023-04-13T16:11:42.223Z,13.72
2023-04-13T16:14:10.904Z,13.80
2023-04-13T16:16:46.588Z,13.71
2023-04-13T16:19:18.030Z,13.69
2023-04-13T16:21:50.846Z,13.56
2023-04-13T16:24:21.024Z,13.56
2023-04-13T16:26:49.440Z,13.73
2023-04-13T16:29:18.033Z,13.72
2023-04-13T16:31:48.224Z,13.71
2023-04-13T16:34:25.572Z,13.77
2023-04-13T16:36:57.443Z,13.65
2023-04-13T16:39:25.849Z,13.86
2023-04-13T16:41:54.197Z,13.78
2023-04-13T16:44:22.612Z,13.75
2023-04-13T16:46:51.245Z,13.68
2023-04-13T16:49:19.717Z,13.57
2023-04-13T16:51:48.529Z,13.56
2023-04-13T16:54:19.300Z,13.45
2023-04-13T16:56:47.817Z,13.35
2023-04-13T16:59:16.204Z,13.28
2023-04-13T17:01:44.657Z,13.30
2023-04-13T17:04:13.748Z,13.22
2023-04-13T17:06:42.274Z,13.43
2023-04-13T17:09:11.306Z,13.33
2023-04-13T17:11:41.915Z,13.30
2023-04-13T17:14:10.628Z,13.31
2023-04-13T17:16:38.929Z,13.36
2023-04-13T17:19:07.393Z,13.27
2023-04-13T17:21:35.780Z,13.20
2023-04-13T17:24:04.556Z,13.27
2023-04-13T17:26:33.292Z,13.24
2023-04-13T17:29:03.118Z,13.24
2023-04-13T17:31:31.525Z,13.12
2023-04-13T17:33:59.827Z,13.11
2023-04-13T17:36:28.455Z,12.96
2023-04-13T17:38:56.841Z,12.99
2023-04-13T17:41:25.170Z,12.91
2023-04-13T17:43:53.491Z,12.88
2023-04-13T17:46:23.215Z,12.84
2023-04-13T17:48:51.607Z,12.82
2023-04-13T17:51:19.982Z,12.83
2023-04-13T17:53:48.373Z,12.75
2023-04-13T17:56:17.687Z,12.43
2023-04-13T17:58:46.780Z,12.62
2023-04-13T18:01:15.241Z,12.74
2023-04-13T18:03:45.454Z,12.76
2023-04-13T18:06:14.019Z,12.68
2023-04-13T18:08:42.302Z,12.67
2023-04-13T18:11:11.999Z,12.78
2023-04-13T18:13:41.267Z,12.58
2023-04-13T18:16:11.755Z,12.62
2023-04-13T18:18:41.880Z,12.64
2023-04-13T18:21:11.638Z,12.60
2023-04-13T18:23:40.074Z,12.59
2023-04-13T18:26:08.511Z,12.47
2023-04-13T18:28:37.471Z,12.59
2023-04-13T18:31:07.115Z,12.59
2023-04-13T18:33:35.479Z,12.61
2023-04-13T18:36:03.748Z,12.54
2023-04-13T18:38:34.803Z,12.49
2023-04-13T18:41:03.283Z,12.57
2023-04-13T18:43:31.633Z,12.50
2023-04-13T18:46:01.465Z,12.49
2023-04-13T18:48:30.787Z,12.44
2023-04-13T18:50:59.122Z,12.41
2023-04-13T18:53:28.475Z,12.42
2023-04-13T18:55:59.796Z,12.43
2023-04-13T18:58:28.256Z,12.39
2023-04-13T19:00:56.999Z,12.15
2023-04-13T19:03:25.514Z,12.23
2023-04-13T19:05:53.955Z,12.14
2023-04-13T19:08:22.370Z,12.07
2023-04-13T19:10:50.783Z,11.99
2023-04-13T19:13:20.604Z,12.00
2023-04-13T19:15:49.461Z,11.87
2023-04-13T19:18:18.197Z,11.84
2023-04-13T19:20:46.566Z,11.78
2023-04-13T19:23:14.877Z,11.83
2023-04-13T19:25:43.199Z,11.78
2023-04-13T19:28:11.780Z,11.77
2023-04-13T19:30:41.511Z,11.70
2023-04-13T19:33:09.979Z,11.67
2023-04-13T19:35:38.454Z,11.63
2023-04-13T19:38:06.791Z,11.54
2023-04-13T19:40:35.612Z,11.57
2023-04-13T19:43:04.316Z,11.52
2023-04-13T19:45:32.772Z,11.52
2023-04-13T19:48:02.680Z,11.49
2023-04-13T19:50:31.375Z,11.45
2023-04-13T19:52:59.702Z,11.41
2023-04-13T19:55:28.419Z,11.39
2023-04-13T19:57:56.773Z,11.19
2023-04-13T20:00:28.153Z,11.37
2023-04-13T20:03:02.682Z,11.33
2023-04-13T20:05:32.812Z,11.19
2023-04-13T20:08:01.320Z,10.85
2023-04-13T20:10:29.562Z,11.26
2023-04-13T20:12:57.896Z,11.31
2023-04-13T20:15:26.409Z,11.28
2023-04-13T20:17:54.832Z,11.28
2023-04-13T20:20:24.472Z,11.26
2023-04-13T20:22:54.154Z,11.28
2023-04-13T20:25:22.587Z,11.32
2023-04-13T20:27:51.088Z,11.29
2023-04-13T20:30:19.775Z,11.28
2023-04-13T20:32:48.353Z,11.30
2023-04-13T20:35:17.001Z,11.27
2023-04-13T20:37:45.414Z,11.31
2023-04-13T20:40:15.204Z,11.26
2023-04-13T20:42:44.320Z,11.25
2023-04-13T20:45:14.911Z,11.28
2023-04-13T20:47:43.543Z,11.28
2023-04-13T20:50:13.109Z,11.30
2023-04-13T20:52:42.647Z,10.58
2023-04-13T20:55:11.686Z,11.27
2023-04-13T20:57:42.181Z,11.24
2023-04-13T21:00:15.473Z,11.19
2023-04-13T21:02:44.967Z,11.20
2023-04-13T21:05:13.830Z,11.13
2023-04-13T21:07:42.371Z,11.16
2023-04-13T21:10:12.161Z,11.04
2023-04-13T21:12:44.275Z,11.15
2023-04-13T21:15:13.363Z,11.23
2023-04-13T21:17:41.725Z,11.21
2023-04-13T21:20:11.980Z,11.23
2023-04-13T21:22:40.500Z,11.23
2023-04-13T21:25:09.419Z,11.22
2023-04-13T21:27:37.851Z,11.14
2023-04-13T21:30:09.477Z,11.18
2023-04-13T21:32:37.971Z,11.17
2023-04-13T21:35:07.767Z,11.14
2023-04-13T21:37:36.215Z,11.14
2023-04-13T21:40:05.125Z,11.11
2023-04-13T21:42:33.489Z,10.99
2023-04-13T21:45:01.837Z,10.73
2023-04-13T21:47:31.710Z,10.87
2023-04-13T21:50:00.244Z,10.78
2023-04-13T21:52:30.130Z,10.70
2023-04-13T21:54:59.798Z,10.75
2023-04-13T21:57:28.511Z,10.77
2023-04-13T21:59:57.366Z,10.72
2023-04-13T22:02:26.304Z,10.70
2023-04-13T22:04:56.125Z,10.57
2023-04-13T22:07:39.046Z,10.74
2023-04-13T22:10:11.447Z,10.78
2023-04-13T22:12:39.832Z,10.80
2023-04-13T22:15:09.526Z,10.82
2023-04-13T22:17:37.868Z,10.82
2023-04-13T22:20:09.667Z,10.84
2023-04-13T22:22:37.989Z,10.83
2023-04-13T22:25:07.256Z,10.83
2023-04-13T22:27:37.701Z,10.86
2023-04-13T22:30:08.038Z,10.85
2023-04-13T22:32:39.518Z,10.70
2023-04-13T22:35:11.122Z,10.87
2023-04-13T22:37:39.483Z,10.88
2023-04-13T22:40:09.527Z,10.91
2023-04-13T22:42:37.890Z,10.81
2023-04-13T22:45:07.506Z,10.85
2023-04-13T22:47:36.407Z,10.89
2023-04-13T22:50:05.088Z,10.85
2023-04-13T22:52:34.830Z,10.80
2023-04-13T22:55:03.225Z,10.79
2023-04-13T22:57:31.542Z,10.79
2023-04-13T22:59:59.832Z,10.78
2023-04-13T23:02:28.456Z,10.73
2023-04-13T23:04:57.121Z,10.70
2023-04-13T23:07:25.880Z,10.51
2023-04-13T23:09:55.557Z,10.70
2023-04-13T23:12:23.901Z,10.63
2023-04-13T23:14:53.288Z,10.58
2023-04-13T23:17:21.748Z,10.60
2023-04-13T23:19:50.064Z,10.57
2023-04-13T23:22:18.391Z,10.53
2023-04-13T23:24:46.668Z,10.55
2023-04-13T23:27:16.517Z,10.57
2023-04-13T23:29:45.678Z,10.62
2023-04-13T23:32:14.115Z,10.60
2023-04-13T23:34:42.421Z,10.59
2023-04-13T23:37:10.795Z,9.77
2023-04-13T23:39:39.197Z,10.61
2023-04-13T23:42:08.493Z,10.63
2023-04-13T23:44:38.108Z,10.65
2023-04-13T23:47:07.111Z,10.65
2023-04-13T23:49:35.467Z,10.65
2023-04-13T23:52:03.841Z,10.68
2023-04-13T23:54:32.378Z,10.68
2023-04-13T23:57:01.590Z,10.68
2023-04-13T23:59:30.462Z,10.61
